PABE/BET METAR and TAF weather

Enter ICAO airport designator
Station Type Date Time Source
PABE METAR 2019/09/21 03:53 UTC NOAA

PABE 210353Z 30010KT 10SM CLR 08/00 A2956 RMK AO2 SLP011 T00830000


Station Type Date Time Source
PABE Decoded METAR 2019/09/21 03:53 UTC NOAA

BETHEL AIRPORT, AK, United States (PABE) 60-47N 161-50W 46M
Sep 20, 2019 - 11:53 PM EDT / 2019.09.21 0353 UTC
Wind: from the WNW (300 degrees) at 12 MPH (10 KT):0
Visibility: 10 mile(s):0
Sky conditions: clear
Temperature: 46.9 F (8.3 C)
Dew Point: 32.0 F (0.0 C)
Relative Humidity: 55%
Pressure (altimeter): 29.56 in. Hg (1001 hPa)
ob: PABE 210353Z 30010KT 10SM CLR 08/00 A2956 RMK AO2 SLP011 T00830000
cycle: 4

Station Type Date Time Source
PABE TAF 2019/09/20 18:40 UTC NOAA

TAF PABE 201738Z 2018/2118 31008KT P6SM BKN040
FM202200 32015G23KT P6SM BKN040
FM210600 29008KT P6SM FEW050 SCT250
FM211400 16007KT P6SM SCT050 BKN100

Example: see airport list